sensor_id;sensor_type;location;lat;lon;timestamp;pressure;altitude;pressure_sealevel;temperature;humidity
11198;BME280;5655;48.744;9.162;2023-02-23T00:00:42;95807.31;;;12.30;100.00
11198;BME280;5655;48.744;9.162;2023-02-23T00:03:09;95811.09;;;12.43;100.00
11198;BME280;5655;48.744;9.162;2023-02-23T00:05:35;95802.66;;;12.48;100.00
11198;BME280;5655;48.744;9.162;2023-02-23T00:08:01;95795.09;;;12.07;100.00
11198;BME280;5655;48.744;9.162;2023-02-23T00:10:27;95807.31;;;12.33;100.00
11198;BME280;5655;48.744;9.162;2023-02-23T00:12:59;95799.69;;;12.07;100.00
11198;BME280;5655;48.744;9.162;2023-02-23T00:15:25;95805.03;;;12.28;100.00
11198;BME280;5655;48.744;9.162;2023-02-23T00:17:53;95798.88;;;12.27;100.00
11198;BME280;5655;48.744;9.162;2023-02-23T00:20:19;95801.19;;;12.18;100.00
11198;BME280;5655;48.744;9.162;2023-02-23T00:22:51;95801.19;;;12.25;100.00
11198;BME280;5655;48.744;9.162;2023-02-23T00:25:16;95804.31;;;12.03;100.00
11198;BME280;5655;48.744;9.162;2023-02-23T00:27:42;95805.84;;;11.86;100.00
11198;BME280;5655;48.744;9.162;2023-02-23T00:30:14;95816.56;;;11.90;100.00
11198;BME280;5655;48.744;9.162;2023-02-23T00:32:39;95806.59;;;11.69;100.00
11198;BME280;5655;48.744;9.162;2023-02-23T00:35:06;95805.44;;;11.59;100.00
11198;BME280;5655;48.744;9.162;2023-02-23T00:37:42;95795.47;;;11.60;100.00
11198;BME280;5655;48.744;9.162;2023-02-23T00:40:08;95793.16;;;11.48;100.00
11198;BME280;5655;48.744;9.162;2023-02-23T00:42:38;95789.69;;;11.33;100.00
11198;BME280;5655;48.744;9.162;2023-02-23T00:45:04;95785.84;;;11.30;100.00
11198;BME280;5655;48.744;9.162;2023-02-23T00:47:34;95776.66;;;11.14;100.00
11198;BME280;5655;48.744;9.162;2023-02-23T00:50:00;95775.88;;;11.10;100.00
11198;BME280;5655;48.744;9.162;2023-02-23T00:52:26;95769.00;;;11.16;100.00
11198;BME280;5655;48.744;9.162;2023-02-23T00:54:51;95780.50;;;11.30;100.00
11198;BME280;5655;48.744;9.162;2023-02-23T00:57:16;95776.28;;;11.22;100.00
11198;BME280;5655;48.744;9.162;2023-02-23T00:59:41;95769.78;;;11.27;100.00
11198;BME280;5655;48.744;9.162;2023-02-23T01:02:07;95769.00;;;11.19;100.00
11198;BME280;5655;48.744;9.162;2023-02-23T01:04:32;95775.53;;;11.25;100.00
11198;BME280;5655;48.744;9.162;2023-02-23T01:06:57;95772.81;;;11.04;100.00
11198;BME280;5655;48.744;9.162;2023-02-23T01:09:23;95760.16;;;10.87;100.00
11198;BME280;5655;48.744;9.162;2023-02-23T01:11:53;95772.06;;;11.00;100.00
11198;BME280;5655;48.744;9.162;2023-02-23T01:14:20;95769.75;;;11.02;100.00
11198;BME280;5655;48.744;9.162;2023-02-23T01:16:46;95770.47;;;10.92;100.00
11198;BME280;5655;48.744;9.162;2023-02-23T01:19:11;95764.75;;;11.01;100.00
11198;BME280;5655;48.744;9.162;2023-02-23T01:21:40;95764.38;;;10.99;100.00
11198;BME280;5655;48.744;9.162;2023-02-23T01:24:06;95762.47;;;11.06;100.00
11198;BME280;5655;48.744;9.162;2023-02-23T01:26:34;95759.81;;;11.03;100.00
11198;BME280;5655;48.744;9.162;2023-02-23T01:29:03;95753.69;;;11.02;100.00
11198;BME280;5655;48.744;9.162;2023-02-23T01:31:30;95758.25;;;11.05;100.00
11198;BME280;5655;48.744;9.162;2023-02-23T01:33:57;95762.06;;;10.90;100.00
11198;BME280;5655;48.744;9.162;2023-02-23T01:36:22;95748.28;;;10.88;100.00
11198;BME280;5655;48.744;9.162;2023-02-23T01:38:50;95758.25;;;10.98;100.00
11198;BME280;5655;48.744;9.162;2023-02-23T01:41:16;95749.09;;;10.96;100.00
11198;BME280;5655;48.744;9.162;2023-02-23T01:44:05;95753.72;;;11.16;100.00
11198;BME280;5655;48.744;9.162;2023-02-23T01:46:36;95750.59;;;10.93;100.00
11198;BME280;5655;48.744;9.162;2023-02-23T01:49:12;95751.03;;;11.16;100.00
11198;BME280;5655;48.744;9.162;2023-02-23T01:51:45;95737.97;;;10.93;100.00
11198;BME280;5655;48.744;9.162;2023-02-23T01:54:32;95752.56;;;11.17;100.00
11198;BME280;5655;48.744;9.162;2023-02-23T01:57:01;95744.47;;;10.82;100.00
11198;BME280;5655;48.744;9.162;2023-02-23T01:59:32;95750.63;;;11.14;100.00
11198;BME280;5655;48.744;9.162;2023-02-23T02:01:59;95748.31;;;10.95;100.00
11198;BME280;5655;48.744;9.162;2023-02-23T02:04:25;95741.03;;;10.92;100.00
11198;BME280;5655;48.744;9.162;2023-02-23T02:06:53;95735.31;;;10.90;100.00
11198;BME280;5655;48.744;9.162;2023-02-23T02:09:21;95737.97;;;10.86;100.00
11198;BME280;5655;48.744;9.162;2023-02-23T02:11:51;95738.34;;;10.92;100.00
11198;BME280;5655;48.744;9.162;2023-02-23T02:17:05;95738.78;;;11.08;100.00
11198;BME280;5655;48.744;9.162;2023-02-23T02:39:32;95721.97;;;11.25;100.00
11198;BME280;5655;48.744;9.162;2023-02-23T02:44:58;95729.97;;;11.15;100.00
11198;BME280;5655;48.744;9.162;2023-02-23T02:47:39;95729.94;;;10.97;100.00
11198;BME280;5655;48.744;9.162;2023-02-23T02:50:10;95728.06;;;11.15;100.00
11198;BME280;5655;48.744;9.162;2023-02-23T02:52:43;95710.09;;;11.19;100.00
11198;BME280;5655;48.744;9.162;2023-02-23T02:55:18;95723.88;;;11.21;100.00
11198;BME280;5655;48.744;9.162;2023-02-23T02:57:49;95728.47;;;11.21;100.00
11198;BME280;5655;48.744;9.162;2023-02-23T03:00:18;95722.31;;;11.13;100.00
11198;BME280;5655;48.744;9.162;2023-02-23T03:03:02;95718.50;;;11.07;100.00
11198;BME280;5655;48.744;9.162;2023-02-23T03:05:49;95721.94;;;11.08;100.00
11198;BME280;5655;48.744;9.162;2023-02-23T03:09:02;95718.50;;;11.50;100.00
11198;BME280;5655;48.744;9.162;2023-02-23T03:12:07;95714.66;;;11.22;100.00
11198;BME280;5655;48.744;9.162;2023-02-23T03:14:54;95725.41;;;11.08;100.00
11198;BME280;5655;48.744;9.162;2023-02-23T03:17:45;95718.53;;;11.21;100.00
11198;BME280;5655;48.744;9.162;2023-02-23T03:23:39;95724.63;;;11.32;100.00
11198;BME280;5655;48.744;9.162;2023-02-23T03:26:34;95729.22;;;11.35;100.00
11198;BME280;5655;48.744;9.162;2023-02-23T03:32:28;95727.69;;;11.17;100.00
11198;BME280;5655;48.744;9.162;2023-02-23T03:35:26;95729.22;;;11.28;100.00
11198;BME280;5655;48.744;9.162;2023-02-23T03:38:29;95733.06;;;11.38;100.00
11198;BME280;5655;48.744;9.162;2023-02-23T03:41:16;95730.75;;;11.08;100.00
11198;BME280;5655;48.744;9.162;2023-02-23T03:44:08;95728.47;;;11.17;100.00
11198;BME280;5655;48.744;9.162;2023-02-23T03:46:54;95721.53;;;11.06;100.00
11198;BME280;5655;48.744;9.162;2023-02-23T03:49:41;95733.81;;;11.17;100.00
11198;BME280;5655;48.744;9.162;2023-02-23T03:52:32;95720.03;;;11.12;100.00
11198;BME280;5655;48.744;9.162;2023-02-23T03:55:23;95735.34;;;11.18;100.00
11198;BME280;5655;48.744;9.162;2023-02-23T03:58:12;95736.50;;;11.17;100.00
11198;BME280;5655;48.744;9.162;2023-02-23T04:01:00;95728.84;;;11.12;100.00
11198;BME280;5655;48.744;9.162;2023-02-23T04:03:46;95729.22;;;11.07;100.00
11198;BME280;5655;48.744;9.162;2023-02-23T04:06:35;95733.78;;;11.10;100.00
11198;BME280;5655;48.744;9.162;2023-02-23T04:09:21;95738.75;;;10.98;100.00
11198;BME280;5655;48.744;9.162;2023-02-23T04:12:10;95738.44;;;11.34;100.00
11198;BME280;5655;48.744;9.162;2023-02-23T04:15:12;95740.72;;;11.25;100.00
11198;BME280;5655;48.744;9.162;2023-02-23T04:17:40;95731.13;;;11.07;100.00
11198;BME280;5655;48.744;9.162;2023-02-23T04:20:08;95732.25;;;11.02;100.00
11198;BME280;5655;48.744;9.162;2023-02-23T04:22:33;95727.25;;;10.86;100.00
11198;BME280;5655;48.744;9.162;2023-02-23T04:24:59;95736.06;;;10.87;100.00
11198;BME280;5655;48.744;9.162;2023-02-23T04:27:25;95733.75;;;10.89;100.00
11198;BME280;5655;48.744;9.162;2023-02-23T04:29:50;95734.13;;;10.87;100.00
11198;BME280;5655;48.744;9.162;2023-02-23T04:32:18;95732.28;;;11.16;100.00
11198;BME280;5655;48.744;9.162;2023-02-23T04:34:44;95738.41;;;11.31;100.00
11198;BME280;5655;48.744;9.162;2023-02-23T04:37:11;95731.13;;;11.03;100.00
11198;BME280;5655;48.744;9.162;2023-02-23T04:39:37;95734.53;;;10.97;100.00
11198;BME280;5655;48.744;9.162;2023-02-23T04:42:02;95727.28;;;10.97;100.00
11198;BME280;5655;48.744;9.162;2023-02-23T04:44:27;95734.16;;;10.98;100.00
11198;BME280;5655;48.744;9.162;2023-02-23T04:46:53;95746.03;;;11.11;100.00
11198;BME280;5655;48.744;9.162;2023-02-23T04:49:18;95737.97;;;10.97;100.00
11198;BME280;5655;48.744;9.162;2023-02-23T04:51:43;95729.91;;;10.79;100.00
11198;BME280;5655;48.744;9.162;2023-02-23T04:54:09;95740.66;;;10.93;100.00
11198;BME280;5655;48.744;9.162;2023-02-23T04:56:34;95735.31;;;10.97;100.00
11198;BME280;5655;48.744;9.162;2023-02-23T04:59:00;95736.06;;;10.94;100.00
11198;BME280;5655;48.744;9.162;2023-02-23T05:01:25;95743.34;;;10.97;100.00
11198;BME280;5655;48.744;9.162;2023-02-23T05:03:51;95739.91;;;11.00;100.00
11198;BME280;5655;48.744;9.162;2023-02-23T05:06:17;95736.84;;;11.05;100.00
11198;BME280;5655;48.744;9.162;2023-02-23T05:08:42;95745.28;;;11.14;100.00
11198;BME280;5655;48.744;9.162;2023-02-23T05:11:08;95750.63;;;11.14;100.00
11198;BME280;5655;48.744;9.162;2023-02-23T05:13:33;95747.16;;;10.96;100.00
11198;BME280;5655;48.744;9.162;2023-02-23T05:15:59;95737.63;;;11.16;100.00
11198;BME280;5655;48.744;9.162;2023-02-23T05:18:25;95746.84;;;11.26;100.00
11198;BME280;5655;48.744;9.162;2023-02-23T05:20:50;95741.81;;;11.07;100.00
11198;BME280;5655;48.744;9.162;2023-02-23T05:23:16;95741.81;;;11.03;100.00
11198;BME280;5655;48.744;9.162;2023-02-23T05:25:41;95744.88;;;11.05;100.00
11198;BME280;5655;48.744;9.162;2023-02-23T05:28:06;95748.31;;;11.09;100.00
11198;BME280;5655;48.744;9.162;2023-02-23T05:30:32;95755.63;;;11.19;100.00
11198;BME280;5655;48.744;9.162;2023-02-23T05:32:57;95747.59;;;11.48;100.00
11198;BME280;5655;48.744;9.162;2023-02-23T05:35:23;95744.91;;;11.16;100.00
11198;BME280;5655;48.744;9.162;2023-02-23T05:37:48;95742.16;;;10.87;100.00
11198;BME280;5655;48.744;9.162;2023-02-23T05:40:14;95734.13;;;10.80;100.00
11198;BME280;5655;48.744;9.162;2023-02-23T05:42:39;95746.41;;;11.06;100.00
11198;BME280;5655;48.744;9.162;2023-02-23T05:45:05;95749.50;;;11.08;100.00
11198;BME280;5655;48.744;9.162;2023-02-23T05:47:32;95749.88;;;11.10;100.00
11198;BME280;5655;48.744;9.162;2023-02-23T05:49:59;95750.66;;;11.21;100.00
11198;BME280;5655;48.744;9.162;2023-02-23T05:52:25;95748.31;;;11.02;100.00
11198;BME280;5655;48.744;9.162;2023-02-23T05:54:50;95753.31;;;11.07;100.00
11198;BME280;5655;48.744;9.162;2023-02-23T05:57:15;95746.00;;;10.90;100.00
11198;BME280;5655;48.744;9.162;2023-02-23T05:59:40;95739.13;;;10.92;100.00
11198;BME280;5655;48.744;9.162;2023-02-23T06:02:06;95742.53;;;10.75;100.00
11198;BME280;5655;48.744;9.162;2023-02-23T06:04:32;95751.38;;;10.97;100.00
11198;BME280;5655;48.744;9.162;2023-02-23T06:06:57;95748.72;;;11.11;100.00
11198;BME280;5655;48.744;9.162;2023-02-23T06:09:23;95739.13;;;10.89;100.00
11198;BME280;5655;48.744;9.162;2023-02-23T06:11:49;95749.41;;;10.80;100.00
11198;BME280;5655;48.744;9.162;2023-02-23T06:14:14;95742.16;;;10.84;100.00
11198;BME280;5655;48.744;9.162;2023-02-23T06:16:40;95754.09;;;11.04;100.00
11198;BME280;5655;48.744;9.162;2023-02-23T06:19:09;95754.81;;;10.98;100.00
11198;BME280;5655;48.744;9.162;2023-02-23T06:21:34;95754.84;;;11.08;100.00
11198;BME280;5655;48.744;9.162;2023-02-23T06:24:00;95760.56;;;11.10;100.00
11198;BME280;5655;48.744;9.162;2023-02-23T06:26:25;95763.25;;;11.03;100.00
11198;BME280;5655;48.744;9.162;2023-02-23T06:28:51;95763.25;;;11.03;100.00
11198;BME280;5655;48.744;9.162;2023-02-23T06:31:16;95765.09;;;10.78;100.00
11198;BME280;5655;48.744;9.162;2023-02-23T06:33:41;95756.00;;;11.07;100.00
11198;BME280;5655;48.744;9.162;2023-02-23T06:36:07;95763.59;;;10.87;100.00
11198;BME280;5655;48.744;9.162;2023-02-23T06:38:32;95769.75;;;11.02;100.00
11198;BME280;5655;48.744;9.162;2023-02-23T06:40:57;95770.09;;;10.86;100.00
11198;BME280;5655;48.744;9.162;2023-02-23T06:43:23;95777.78;;;11.09;100.00
11198;BME280;5655;48.744;9.162;2023-02-23T06:45:48;95780.13;;;11.25;100.00
11198;BME280;5655;48.744;9.162;2023-02-23T06:48:13;95776.59;;;10.96;100.00
11198;BME280;5655;48.744;9.162;2023-02-23T06:50:39;95778.84;;;10.73;100.00
11198;BME280;5655;48.744;9.162;2023-02-23T06:53:04;95775.81;;;10.85;100.00
11198;BME280;5655;48.744;9.162;2023-02-23T06:55:30;95786.22;;;11.04;100.00
11198;BME280;5655;48.744;9.162;2023-02-23T06:57:56;95787.00;;;11.12;100.00
11198;BME280;5655;48.744;9.162;2023-02-23T07:00:22;95790.81;;;11.04;100.00
11198;BME280;5655;48.744;9.162;2023-02-23T07:02:48;95787.66;;;10.84;100.00
11198;BME280;5655;48.744;9.162;2023-02-23T07:05:13;95792.66;;;10.92;100.00
11198;BME280;5655;48.744;9.162;2023-02-23T07:07:38;95802.66;;;11.10;100.00
11198;BME280;5655;48.744;9.162;2023-02-23T07:10:05;95798.06;;;11.07;100.00
11198;BME280;5655;48.744;9.162;2023-02-23T07:12:30;95803.78;;;10.98;100.00
11198;BME280;5655;48.744;9.162;2023-02-23T07:14:56;95800.38;;;11.15;100.00
11198;BME280;5655;48.744;9.162;2023-02-23T07:17:21;95808.38;;;11.01;100.00
11198;BME280;5655;48.744;9.162;2023-02-23T07:19:47;95800.38;;;11.15;100.00
11198;BME280;5655;48.744;9.162;2023-02-23T07:22:12;95811.91;;;11.30;100.00
11198;BME280;5655;48.744;9.162;2023-02-23T07:24:37;95809.56;;;11.14;100.00
11198;BME280;5655;48.744;9.162;2023-02-23T07:27:03;95806.06;;;10.96;100.00
11198;BME280;5655;48.744;9.162;2023-02-23T07:29:29;95809.59;;;11.32;100.00
11198;BME280;5655;48.744;9.162;2023-02-23T07:31:54;95806.44;;;10.91;100.00
11198;BME280;5655;48.744;9.162;2023-02-23T07:34:19;95805.31;;;10.96;100.00
11198;BME280;5655;48.744;9.162;2023-02-23T07:36:45;95817.22;;;11.19;100.00
11198;BME280;5655;48.744;9.162;2023-02-23T07:39:10;95814.91;;;11.00;100.00
11198;BME280;5655;48.744;9.162;2023-02-23T07:41:36;95814.84;;;10.93;100.00
11198;BME280;5655;48.744;9.162;2023-02-23T07:44:01;95812.63;;;11.16;100.00
11198;BME280;5655;48.744;9.162;2023-02-23T07:46:26;95814.13;;;11.10;100.00
11198;BME280;5655;48.744;9.162;2023-02-23T07:48:52;95814.94;;;11.25;100.00
11198;BME280;5655;48.744;9.162;2023-02-23T07:51:18;95824.16;;;11.45;100.00
11198;BME280;5655;48.744;9.162;2023-02-23T07:53:43;95819.94;;;11.41;100.00
11198;BME280;5655;48.744;9.162;2023-02-23T07:56:10;95816.53;;;11.58;100.00
11198;BME280;5655;48.744;9.162;2023-02-23T07:58:36;95826.47;;;11.57;100.00
11198;BME280;5655;48.744;9.162;2023-02-23T08:01:03;95826.09;;;11.55;100.00
11198;BME280;5655;48.744;9.162;2023-02-23T08:03:28;95820.31;;;11.21;100.00
11198;BME280;5655;48.744;9.162;2023-02-23T08:05:54;95821.47;;;11.42;100.00
11198;BME280;5655;48.744;9.162;2023-02-23T08:08:20;95829.88;;;11.36;100.00
11198;BME280;5655;48.744;9.162;2023-02-23T08:10:46;95827.63;;;11.63;100.00
11198;BME280;5655;48.744;9.162;2023-02-23T08:13:12;95821.88;;;11.47;100.00
11198;BME280;5655;48.744;9.162;2023-02-23T08:15:38;95833.41;;;11.79;100.00
11198;BME280;5655;48.744;9.162;2023-02-23T08:18:03;95833.78;;;11.78;100.00
11198;BME280;5655;48.744;9.162;2023-02-23T08:20:29;95841.84;;;11.92;100.00
11198;BME280;5655;48.744;9.162;2023-02-23T08:22:55;95842.59;;;11.75;100.00
11198;BME280;5655;48.744;9.162;2023-02-23T08:25:21;95842.59;;;11.93;100.00
11198;BME280;5655;48.744;9.162;2023-02-23T08:27:47;95839.13;;;12.17;100.00
11198;BME280;5655;48.744;9.162;2023-02-23T08:30:13;95840.31;;;12.05;100.00
11198;BME280;5655;48.744;9.162;2023-02-23T08:32:39;95835.34;;;12.07;100.00
11198;BME280;5655;48.744;9.162;2023-02-23T08:35:05;95834.94;;;12.05;100.00
11198;BME280;5655;48.744;9.162;2023-02-23T08:37:32;95828.38;;;12.31;100.00
11198;BME280;5655;48.744;9.162;2023-02-23T08:39:57;95835.69;;;12.09;100.00
11198;BME280;5655;48.744;9.162;2023-02-23T08:42:25;95838.00;;;11.93;100.00
11198;BME280;5655;48.744;9.162;2023-02-23T08:44:51;95841.09;;;11.99;100.00
11198;BME280;5655;48.744;9.162;2023-02-23T08:47:16;95835.34;;;11.90;100.00
11198;BME280;5655;48.744;9.162;2023-02-23T08:49:47;95838.75;;;12.18;100.00
11198;BME280;5655;48.744;9.162;2023-02-23T08:52:13;95841.41;;;12.40;100.00
11198;BME280;5655;48.744;9.162;2023-02-23T08:54:38;95836.06;;;12.22;100.00
11198;BME280;5655;48.744;9.162;2023-02-23T08:57:03;95842.50;;;12.56;100.00
11198;BME280;5655;48.744;9.162;2023-02-23T08:59:29;95846.78;;;12.33;100.00
11198;BME280;5655;48.744;9.162;2023-02-23T09:01:54;95843.38;;;12.07;100.00
11198;BME280;5655;48.744;9.162;2023-02-23T09:04:20;95845.22;;;12.53;100.00
11198;BME280;5655;48.744;9.162;2023-02-23T09:06:45;95843.34;;;12.21;100.00
11198;BME280;5655;48.744;9.162;2023-02-23T09:09:12;95853.59;;;12.69;100.00
11198;BME280;5655;48.744;9.162;2023-02-23T09:11:37;95853.25;;;12.67;100.00
11198;BME280;5655;48.744;9.162;2023-02-23T09:14:03;95849.84;;;12.45;100.00
11198;BME280;5655;48.744;9.162;2023-02-23T09:16:28;95846.72;;;12.68;100.00
11198;BME280;5655;48.744;9.162;2023-02-23T09:18:53;95861.25;;;12.85;100.00
11198;BME280;5655;48.744;9.162;2023-02-23T09:21:20;95859.75;;;12.69;100.00
11198;BME280;5655;48.744;9.162;2023-02-23T09:23:50;95861.19;;;12.95;100.00
11198;BME280;5655;48.744;9.162;2023-02-23T09:26:17;95857.75;;;12.91;100.00
11198;BME280;5655;48.744;9.162;2023-02-23T09:28:43;95855.41;;;13.04;100.00
11198;BME280;5655;48.744;9.162;2023-02-23T09:31:14;95852.97;;;13.38;100.00
11198;BME280;5655;48.744;9.162;2023-02-23T09:33:40;95859.31;;;12.89;100.00
11198;BME280;5655;48.744;9.162;2023-02-23T09:36:06;95854.72;;;12.89;100.00
11198;BME280;5655;48.744;9.162;2023-02-23T09:38:32;95863.94;;;12.78;100.00
11198;BME280;5655;48.744;9.162;2023-02-23T09:40:58;95863.13;;;12.91;100.00
11198;BME280;5655;48.744;9.162;2023-02-23T09:46:22;95864.56;;;13.21;100.00
11198;BME280;5655;48.744;9.162;2023-02-23T09:48:55;95858.44;;;13.20;100.00
11198;BME280;5655;48.744;9.162;2023-02-23T09:51:22;95858.25;;;13.52;100.00
11198;BME280;5655;48.744;9.162;2023-02-23T09:53:51;95856.03;;;13.40;100.00
11198;BME280;5655;48.744;9.162;2023-02-23T09:58:43;95861.53;;;13.18;100.00
11198;BME280;5655;48.744;9.162;2023-02-23T10:01:38;95860.28;;;13.37;100.00
11198;BME280;5655;48.744;9.162;2023-02-23T10:06:42;95858.31;;;13.45;100.00
11198;BME280;5655;48.744;9.162;2023-02-23T10:09:23;95867.09;;;13.52;100.00
11198;BME280;5655;48.744;9.162;2023-02-23T10:12:17;95867.25;;;13.86;100.00
11198;BME280;5655;48.744;9.162;2023-02-23T10:17:37;95867.81;;;14.12;100.00
11198;BME280;5655;48.744;9.162;2023-02-23T10:20:29;95868.94;;;14.18;100.00
11198;BME280;5655;48.744;9.162;2023-02-23T10:23:02;95869.78;;;14.07;100.00
11198;BME280;5655;48.744;9.162;2023-02-23T10:25:30;95873.69;;;13.99;100.00
11198;BME280;5655;48.744;9.162;2023-02-23T10:28:00;95868.56;;;14.16;100.00
11198;BME280;5655;48.744;9.162;2023-02-23T10:30:29;95875.13;;;14.11;100.00
11198;BME280;5655;48.744;9.162;2023-02-23T10:33:04;95873.19;;;14.12;100.00
11198;BME280;5655;48.744;9.162;2023-02-23T10:35:36;95879.28;;;14.23;100.00
11198;BME280;5655;48.744;9.162;2023-02-23T10:38:01;95874.56;;;14.34;100.00
11198;BME280;5655;48.744;9.162;2023-02-23T10:40:30;95869.50;;;13.95;100.00
11198;BME280;5655;48.744;9.162;2023-02-23T10:42:59;95872.28;;;14.36;100.00
11198;BME280;5655;48.744;9.162;2023-02-23T10:45:27;95870.66;;;14.42;100.00
11198;BME280;5655;48.744;9.162;2023-02-23T10:47:59;95871.94;;;14.27;100.00
11198;BME280;5655;48.744;9.162;2023-02-23T10:50:26;95869.25;;;14.27;100.00
11198;BME280;5655;48.744;9.162;2023-02-23T10:52:57;95865.69;;;14.37;100.00
11198;BME280;5655;48.744;9.162;2023-02-23T10:58:01;95864.13;;;14.80;100.00
11198;BME280;5655;48.744;9.162;2023-02-23T11:00:29;95865.00;;;14.70;100.00
11198;BME280;5655;48.744;9.162;2023-02-23T11:02:57;95870.84;;;14.17;100.00
11198;BME280;5655;48.744;9.162;2023-02-23T11:05:31;95859.34;;;14.61;100.00
11198;BME280;5655;48.744;9.162;2023-02-23T11:08:09;95859.34;;;14.95;100.00
11198;BME280;5655;48.744;9.162;2023-02-23T11:10:35;95859.16;;;14.79;100.00
11198;BME280;5655;48.744;9.162;2023-02-23T11:13:00;95864.41;;;14.89;100.00
11198;BME280;5655;48.744;9.162;2023-02-23T11:15:27;95856.50;;;14.72;100.00
11198;BME280;5655;48.744;9.162;2023-02-23T11:17:58;95841.81;;;15.14;100.00
11198;BME280;5655;48.744;9.162;2023-02-23T11:20:29;95840.59;;;15.15;100.00
11198;BME280;5655;48.744;9.162;2023-02-23T11:22:55;95845.28;;;15.11;100.00
11198;BME280;5655;48.744;9.162;2023-02-23T11:25:27;95843.41;;;15.38;100.00
11198;BME280;5655;48.744;9.162;2023-02-23T11:27:54;95838.28;;;15.17;100.00
11198;BME280;5655;48.744;9.162;2023-02-23T11:30:23;95838.19;;;15.54;100.00
11198;BME280;5655;48.744;9.162;2023-02-23T11:32:55;95839.31;;;15.57;100.00
11198;BME280;5655;48.744;9.162;2023-02-23T11:37:47;95831.94;;;15.30;100.00
11198;BME280;5655;48.744;9.162;2023-02-23T11:40:23;95827.47;;;15.47;100.00
11198;BME280;5655;48.744;9.162;2023-02-23T11:42:56;95824.91;;;15.36;100.00
11198;BME280;5655;48.744;9.162;2023-02-23T11:45:27;95814.41;;;15.72;100.00
11198;BME280;5655;48.744;9.162;2023-02-23T11:47:57;95815.13;;;15.76;100.00
11198;BME280;5655;48.744;9.162;2023-02-23T11:50:27;95812.19;;;15.37;100.00
11198;BME280;5655;48.744;9.162;2023-02-23T11:53:05;95821.34;;;15.73;100.00
11198;BME280;5655;48.744;9.162;2023-02-23T11:55:38;95821.09;;;16.57;100.00
11198;BME280;5655;48.744;9.162;2023-02-23T12:00:54;95811.19;;;16.70;100.00
11198;BME280;5655;48.744;9.162;2023-02-23T12:03:21;95801.66;;;16.86;100.00
11198;BME280;5655;48.744;9.162;2023-02-23T12:05:53;95800.81;;;16.89;100.00
11198;BME280;5655;48.744;9.162;2023-02-23T12:08:35;95804.09;;;16.14;100.00
11198;BME280;5655;48.744;9.162;2023-02-23T12:11:05;95803.53;;;16.03;100.00
11198;BME280;5655;48.744;9.162;2023-02-23T12:13:41;95803.03;;;15.84;100.00
11198;BME280;5655;48.744;9.162;2023-02-23T12:16:23;95799.69;;;15.77;100.00
11198;BME280;5655;48.744;9.162;2023-02-23T12:18:58;95806.28;;;15.99;100.00
11198;BME280;5655;48.744;9.162;2023-02-23T12:21:38;95799.34;;;15.48;100.00
11198;BME280;5655;48.744;9.162;2023-02-23T12:24:17;95805.38;;;15.29;100.00
11198;BME280;5655;48.744;9.162;2023-02-23T12:26:52;95807.19;;;15.39;100.00
11198;BME280;5655;48.744;9.162;2023-02-23T12:29:32;95794.63;;;14.98;100.00
11198;BME280;5655;48.744;9.162;2023-02-23T12:32:05;95792.91;;;15.12;100.00
11198;BME280;5655;48.744;9.162;2023-02-23T12:34:50;95791.06;;;15.32;100.00
11198;BME280;5655;48.744;9.162;2023-02-23T12:37:31;95795.97;;;15.14;100.00
11198;BME280;5655;48.744;9.162;2023-02-23T12:40:12;95792.31;;;15.54;100.00
11198;BME280;5655;48.744;9.162;2023-02-23T12:45:28;95784.72;;;15.19;100.00
11198;BME280;5655;48.744;9.162;2023-02-23T12:48:43;95783.72;;;15.63;100.00
11198;BME280;5655;48.744;9.162;2023-02-23T12:51:19;95780.50;;;15.71;100.00
11198;BME280;5655;48.744;9.162;2023-02-23T12:53:46;95792.63;;;15.03;100.00
11198;BME280;5655;48.744;9.162;2023-02-23T12:56:37;95782.28;;;15.28;100.00
11198;BME280;5655;48.744;9.162;2023-02-23T13:02:02;95782.06;;;15.15;100.00
11198;BME280;5655;48.744;9.162;2023-02-23T13:07:21;95778.38;;;15.06;100.00
11198;BME280;5655;48.744;9.162;2023-02-23T13:10:17;95782.44;;;15.17;100.00
11198;BME280;5655;48.744;9.162;2023-02-23T13:15:57;95776.75;;;15.38;100.00
11198;BME280;5655;48.744;9.162;2023-02-23T13:21:08;95775.78;;;15.25;100.00
11198;BME280;5655;48.744;9.162;2023-02-23T13:23:41;95782.75;;;15.23;100.00
11198;BME280;5655;48.744;9.162;2023-02-23T13:26:34;95771.47;;;15.31;100.00
11198;BME280;5655;48.744;9.162;2023-02-23T13:31:40;95779.72;;;14.90;100.00
11198;BME280;5655;48.744;9.162;2023-02-23T13:34:34;95773.69;;;15.10;100.00
11198;BME280;5655;48.744;9.162;2023-02-23T13:37:05;95772.41;;;15.44;100.00
11198;BME280;5655;48.744;9.162;2023-02-23T13:39:55;95775.53;;;15.43;100.00
11198;BME280;5655;48.744;9.162;2023-02-23T13:47:46;95767.03;;;15.18;100.00
11198;BME280;5655;48.744;9.162;2023-02-23T13:50:39;95768.47;;;15.26;100.00
11198;BME280;5655;48.744;9.162;2023-02-23T13:53:31;95766.06;;;15.05;100.00
11198;BME280;5655;48.744;9.162;2023-02-23T13:55:59;95771.56;;;15.51;100.00
11198;BME280;5655;48.744;9.162;2023-02-23T13:58:30;95773.72;;;15.06;100.00
11198;BME280;5655;48.744;9.162;2023-02-23T14:01:09;95772.88;;;15.13;100.00
11198;BME280;5655;48.744;9.162;2023-02-23T14:04:14;95768.09;;;15.24;100.00
11198;BME280;5655;48.744;9.162;2023-02-23T14:09:41;95766.28;;;14.87;100.00
11198;BME280;5655;48.744;9.162;2023-02-23T14:17:36;95767.88;;;14.81;100.00
11198;BME280;5655;48.744;9.162;2023-02-23T14:28:34;95762.19;;;14.45;100.00
11198;BME280;5655;48.744;9.162;2023-02-23T14:41:28;95769.28;;;14.25;100.00
11198;BME280;5655;48.744;9.162;2023-02-23T14:44:15;95758.50;;;14.25;100.00
11198;BME280;5655;48.744;9.162;2023-02-23T14:47:11;95765.41;;;14.26;100.00
11198;BME280;5655;48.744;9.162;2023-02-23T14:50:03;95768.44;;;14.31;100.00
11198;BME280;5655;48.744;9.162;2023-02-23T14:52:33;95770.00;;;14.29;100.00
11198;BME280;5655;48.744;9.162;2023-02-23T14:57:38;95775.38;;;14.29;100.00
11198;BME280;5655;48.744;9.162;2023-02-23T15:02:53;95773.78;;;13.94;100.00
11198;BME280;5655;48.744;9.162;2023-02-23T15:05:22;95777.41;;;13.80;100.00